sensor_id;sensor_type;location;lat;lon;timestamp;P1;durP1;ratioP1;P2;durP2;ratioP2
75413;SDS011;64758;52.122;5.404;2023-05-07T00:00:19;9.57;;;7.73;;
75413;SDS011;64758;52.122;5.404;2023-05-07T00:02:46;9.77;;;8.30;;
75413;SDS011;64758;52.122;5.404;2023-05-07T00:05:13;8.60;;;7.68;;
75413;SDS011;64758;52.122;5.404;2023-05-07T00:07:41;8.55;;;7.65;;
75413;SDS011;64758;52.122;5.404;2023-05-07T00:10:08;9.80;;;8.00;;
75413;SDS011;64758;52.122;5.404;2023-05-07T00:12:35;8.40;;;7.67;;
75413;SDS011;64758;52.122;5.404;2023-05-07T00:15:02;8.20;;;7.38;;
75413;SDS011;64758;52.122;5.404;2023-05-07T00:17:29;9.27;;;8.30;;
75413;SDS011;64758;52.122;5.404;2023-05-07T00:19:56;8.30;;;7.53;;
75413;SDS011;64758;52.122;5.404;2023-05-07T00:22:23;8.80;;;7.72;;
75413;SDS011;64758;52.122;5.404;2023-05-07T00:24:50;8.47;;;7.63;;
75413;SDS011;64758;52.122;5.404;2023-05-07T00:27:16;10.07;;;6.85;;
75413;SDS011;64758;52.122;5.404;2023-05-07T00:29:43;8.07;;;7.25;;
75413;SDS011;64758;52.122;5.404;2023-05-07T00:32:10;9.20;;;7.70;;
75413;SDS011;64758;52.122;5.404;2023-05-07T00:34:36;9.13;;;7.72;;
75413;SDS011;64758;52.122;5.404;2023-05-07T00:37:03;8.47;;;7.10;;
75413;SDS011;64758;52.122;5.404;2023-05-07T00:39:31;8.85;;;7.28;;
75413;SDS011;64758;52.122;5.404;2023-05-07T00:41:58;8.95;;;7.47;;
75413;SDS011;64758;52.122;5.404;2023-05-07T00:44:25;8.75;;;7.40;;
75413;SDS011;64758;52.122;5.404;2023-05-07T00:46:53;9.48;;;7.90;;
75413;SDS011;64758;52.122;5.404;2023-05-07T00:49:20;8.97;;;7.07;;
75413;SDS011;64758;52.122;5.404;2023-05-07T00:51:47;8.48;;;7.20;;
75413;SDS011;64758;52.122;5.404;2023-05-07T00:54:13;8.25;;;7.45;;
75413;SDS011;64758;52.122;5.404;2023-05-07T00:56:40;8.75;;;7.45;;
75413;SDS011;64758;52.122;5.404;2023-05-07T00:59:07;7.85;;;7.13;;
75413;SDS011;64758;52.122;5.404;2023-05-07T01:01:34;7.87;;;7.07;;
75413;SDS011;64758;52.122;5.404;2023-05-07T01:04:01;8.95;;;7.70;;
75413;SDS011;64758;52.122;5.404;2023-05-07T01:06:28;7.60;;;6.90;;
75413;SDS011;64758;52.122;5.404;2023-05-07T01:08:57;8.25;;;7.45;;
75413;SDS011;64758;52.122;5.404;2023-05-07T01:11:24;8.23;;;7.43;;
75413;SDS011;64758;52.122;5.404;2023-05-07T01:13:51;7.87;;;7.07;;
75413;SDS011;64758;52.122;5.404;2023-05-07T01:16:19;7.53;;;6.82;;
75413;SDS011;64758;52.122;5.404;2023-05-07T01:18:46;7.78;;;7.03;;
75413;SDS011;64758;52.122;5.404;2023-05-07T01:21:15;8.23;;;7.43;;
75413;SDS011;64758;52.122;5.404;2023-05-07T01:23:44;7.47;;;6.85;;
75413;SDS011;64758;52.122;5.404;2023-05-07T01:26:11;9.70;;;7.30;;
75413;SDS011;64758;52.122;5.404;2023-05-07T01:28:37;8.63;;;7.38;;
75413;SDS011;64758;52.122;5.404;2023-05-07T01:31:04;8.38;;;7.40;;
75413;SDS011;64758;52.122;5.404;2023-05-07T01:33:33;8.68;;;7.78;;
75413;SDS011;64758;52.122;5.404;2023-05-07T01:36:02;8.85;;;8.05;;
75413;SDS011;64758;52.122;5.404;2023-05-07T01:38:32;8.10;;;7.30;;
75413;SDS011;64758;52.122;5.404;2023-05-07T01:40:59;9.77;;;8.55;;
75413;SDS011;64758;52.122;5.404;2023-05-07T01:43:26;9.07;;;8.18;;
75413;SDS011;64758;52.122;5.404;2023-05-07T01:45:53;10.50;;;7.70;;
75413;SDS011;64758;52.122;5.404;2023-05-07T01:48:20;9.35;;;8.38;;
75413;SDS011;64758;52.122;5.404;2023-05-07T01:50:47;8.53;;;7.37;;
75413;SDS011;64758;52.122;5.404;2023-05-07T01:53:14;7.95;;;7.18;;
75413;SDS011;64758;52.122;5.404;2023-05-07T01:55:41;8.10;;;7.30;;
75413;SDS011;64758;52.122;5.404;2023-05-07T01:58:07;10.07;;;7.50;;
75413;SDS011;64758;52.122;5.404;2023-05-07T02:00:34;8.82;;;7.78;;
75413;SDS011;64758;52.122;5.404;2023-05-07T02:03:01;8.43;;;7.60;;
75413;SDS011;64758;52.122;5.404;2023-05-07T02:05:27;10.20;;;8.43;;
75413;SDS011;64758;52.122;5.404;2023-05-07T02:07:54;8.82;;;7.97;;
75413;SDS011;64758;52.122;5.404;2023-05-07T02:10:21;8.77;;;7.93;;
75413;SDS011;64758;52.122;5.404;2023-05-07T02:12:47;9.95;;;7.55;;
75413;SDS011;64758;52.122;5.404;2023-05-07T02:15:14;8.60;;;7.73;;
75413;SDS011;64758;52.122;5.404;2023-05-07T02:18:00;8.23;;;7.43;;
75413;SDS011;64758;52.122;5.404;2023-05-07T02:20:29;8.27;;;7.47;;
75413;SDS011;64758;52.122;5.404;2023-05-07T02:22:55;8.77;;;7.88;;
75413;SDS011;64758;52.122;5.404;2023-05-07T02:25:22;9.07;;;8.18;;
75413;SDS011;64758;52.122;5.404;2023-05-07T02:27:48;10.37;;;8.33;;
75413;SDS011;64758;52.122;5.404;2023-05-07T02:30:15;9.15;;;8.07;;
75413;SDS011;64758;52.122;5.404;2023-05-07T02:32:42;9.25;;;8.15;;
75413;SDS011;64758;52.122;5.404;2023-05-07T02:35:08;9.32;;;7.97;;
75413;SDS011;64758;52.122;5.404;2023-05-07T02:37:35;8.15;;;7.45;;
75413;SDS011;64758;52.122;5.404;2023-05-07T02:40:02;9.10;;;8.20;;
75413;SDS011;64758;52.122;5.404;2023-05-07T02:42:30;8.88;;;8.07;;
75413;SDS011;64758;52.122;5.404;2023-05-07T02:44:57;8.10;;;7.40;;
75413;SDS011;64758;52.122;5.404;2023-05-07T02:47:24;8.40;;;7.60;;
75413;SDS011;64758;52.122;5.404;2023-05-07T02:49:53;7.63;;;6.93;;
75413;SDS011;64758;52.122;5.404;2023-05-07T02:52:21;8.07;;;7.27;;
75413;SDS011;64758;52.122;5.404;2023-05-07T02:54:47;9.00;;;8.10;;
75413;SDS011;64758;52.122;5.404;2023-05-07T02:57:14;10.00;;;8.40;;
75413;SDS011;64758;52.122;5.404;2023-05-07T02:59:41;8.73;;;7.93;;
75413;SDS011;64758;52.122;5.404;2023-05-07T03:02:08;8.75;;;7.90;;
75413;SDS011;64758;52.122;5.404;2023-05-07T03:04:35;9.27;;;8.40;;
75413;SDS011;64758;52.122;5.404;2023-05-07T03:07:02;8.98;;;8.13;;
75413;SDS011;64758;52.122;5.404;2023-05-07T03:09:28;9.13;;;8.13;;
75413;SDS011;64758;52.122;5.404;2023-05-07T03:11:55;9.48;;;8.57;;
75413;SDS011;64758;52.122;5.404;2023-05-07T03:14:22;8.93;;;8.13;;
75413;SDS011;64758;52.122;5.404;2023-05-07T03:16:49;10.40;;;8.80;;
75413;SDS011;64758;52.122;5.404;2023-05-07T03:19:16;11.68;;;8.40;;
75413;SDS011;64758;52.122;5.404;2023-05-07T03:21:43;9.68;;;8.15;;
75413;SDS011;64758;52.122;5.404;2023-05-07T03:24:09;8.05;;;7.25;;
75413;SDS011;64758;52.122;5.404;2023-05-07T03:26:36;9.85;;;8.10;;
75413;SDS011;64758;52.122;5.404;2023-05-07T03:29:02;8.93;;;8.13;;
75413;SDS011;64758;52.122;5.404;2023-05-07T03:31:29;9.68;;;7.97;;
75413;SDS011;64758;52.122;5.404;2023-05-07T03:33:56;8.82;;;8.02;;
75413;SDS011;64758;52.122;5.404;2023-05-07T03:36:23;9.23;;;8.18;;
75413;SDS011;64758;52.122;5.404;2023-05-07T03:38:53;9.93;;;8.93;;
75413;SDS011;64758;52.122;5.404;2023-05-07T03:41:19;9.77;;;8.10;;
75413;SDS011;64758;52.122;5.404;2023-05-07T03:43:46;11.77;;;8.95;;
75413;SDS011;64758;52.122;5.404;2023-05-07T03:46:13;9.15;;;8.30;;
75413;SDS011;64758;52.122;5.404;2023-05-07T03:48:39;7.88;;;7.18;;
75413;SDS011;64758;52.122;5.404;2023-05-07T03:51:06;9.48;;;7.32;;
75413;SDS011;64758;52.122;5.404;2023-05-07T03:53:33;10.20;;;8.00;;
75413;SDS011;64758;52.122;5.404;2023-05-07T03:55:59;10.38;;;8.13;;
75413;SDS011;64758;52.122;5.404;2023-05-07T03:58:26;9.50;;;8.60;;
75413;SDS011;64758;52.122;5.404;2023-05-07T04:00:52;9.65;;;8.25;;
75413;SDS011;64758;52.122;5.404;2023-05-07T04:03:19;10.15;;;8.48;;
75413;SDS011;64758;52.122;5.404;2023-05-07T04:05:46;8.90;;;8.00;;
75413;SDS011;64758;52.122;5.404;2023-05-07T04:08:13;8.98;;;8.07;;
75413;SDS011;64758;52.122;5.404;2023-05-07T04:10:39;12.52;;;9.02;;
75413;SDS011;64758;52.122;5.404;2023-05-07T04:13:06;9.85;;;8.82;;
75413;SDS011;64758;52.122;5.404;2023-05-07T04:15:32;9.23;;;8.13;;
75413;SDS011;64758;52.122;5.404;2023-05-07T04:17:59;10.50;;;8.87;;
75413;SDS011;64758;52.122;5.404;2023-05-07T04:20:26;9.98;;;8.93;;
75413;SDS011;64758;52.122;5.404;2023-05-07T04:22:52;10.73;;;9.63;;
75413;SDS011;64758;52.122;5.404;2023-05-07T04:25:19;10.35;;;9.35;;
75413;SDS011;64758;52.122;5.404;2023-05-07T04:27:46;10.75;;;8.95;;
75413;SDS011;64758;52.122;5.404;2023-05-07T04:30:12;9.90;;;8.90;;
75413;SDS011;64758;52.122;5.404;2023-05-07T04:32:40;12.40;;;8.88;;
75413;SDS011;64758;52.122;5.404;2023-05-07T04:35:06;11.43;;;9.68;;
75413;SDS011;64758;52.122;5.404;2023-05-07T04:37:33;10.95;;;9.32;;
75413;SDS011;64758;52.122;5.404;2023-05-07T04:39:59;10.48;;;9.10;;
75413;SDS011;64758;52.122;5.404;2023-05-07T04:42:26;10.07;;;8.60;;
75413;SDS011;64758;52.122;5.404;2023-05-07T04:44:53;10.88;;;9.18;;
75413;SDS011;64758;52.122;5.404;2023-05-07T04:47:20;12.38;;;9.00;;
75413;SDS011;64758;52.122;5.404;2023-05-07T04:49:46;12.52;;;9.70;;
75413;SDS011;64758;52.122;5.404;2023-05-07T04:52:13;12.98;;;9.68;;
75413;SDS011;64758;52.122;5.404;2023-05-07T04:54:40;10.87;;;9.47;;
75413;SDS011;64758;52.122;5.404;2023-05-07T04:57:06;10.35;;;8.95;;
75413;SDS011;64758;52.122;5.404;2023-05-07T04:59:33;13.75;;;9.90;;
75413;SDS011;64758;52.122;5.404;2023-05-07T05:01:59;11.35;;;9.70;;
75413;SDS011;64758;52.122;5.404;2023-05-07T05:04:26;13.23;;;10.05;;
75413;SDS011;64758;52.122;5.404;2023-05-07T05:06:53;13.33;;;9.77;;
75413;SDS011;64758;52.122;5.404;2023-05-07T05:09:19;11.82;;;9.77;;
75413;SDS011;64758;52.122;5.404;2023-05-07T05:11:46;12.68;;;9.90;;
75413;SDS011;64758;52.122;5.404;2023-05-07T05:14:13;11.25;;;10.00;;
75413;SDS011;64758;52.122;5.404;2023-05-07T05:16:39;14.30;;;9.95;;
75413;SDS011;64758;52.122;5.404;2023-05-07T05:19:06;15.33;;;10.10;;
75413;SDS011;64758;52.122;5.404;2023-05-07T05:21:33;15.70;;;10.27;;
75413;SDS011;64758;52.122;5.404;2023-05-07T05:23:59;12.73;;;9.68;;
75413;SDS011;64758;52.122;5.404;2023-05-07T05:26:26;13.57;;;10.32;;
75413;SDS011;64758;52.122;5.404;2023-05-07T05:28:52;14.15;;;10.85;;
75413;SDS011;64758;52.122;5.404;2023-05-07T05:31:19;13.43;;;10.40;;
75413;SDS011;64758;52.122;5.404;2023-05-07T05:33:46;13.23;;;10.18;;
75413;SDS011;64758;52.122;5.404;2023-05-07T05:36:12;11.88;;;9.27;;
75413;SDS011;64758;52.122;5.404;2023-05-07T05:38:39;15.35;;;10.18;;
75413;SDS011;64758;52.122;5.404;2023-05-07T05:41:06;14.93;;;10.68;;
75413;SDS011;64758;52.122;5.404;2023-05-07T05:43:33;11.97;;;9.77;;
75413;SDS011;64758;52.122;5.404;2023-05-07T05:45:59;13.88;;;10.60;;
75413;SDS011;64758;52.122;5.404;2023-05-07T05:48:28;12.77;;;10.93;;
75413;SDS011;64758;52.122;5.404;2023-05-07T05:50:55;13.65;;;10.45;;
75413;SDS011;64758;52.122;5.404;2023-05-07T05:53:21;13.52;;;11.15;;
75413;SDS011;64758;52.122;5.404;2023-05-07T05:55:48;13.43;;;10.63;;
75413;SDS011;64758;52.122;5.404;2023-05-07T05:58:15;14.00;;;10.15;;
75413;SDS011;64758;52.122;5.404;2023-05-07T06:00:41;13.27;;;10.25;;
75413;SDS011;64758;52.122;5.404;2023-05-07T06:03:08;13.90;;;11.45;;
75413;SDS011;64758;52.122;5.404;2023-05-07T06:05:36;15.57;;;11.20;;
75413;SDS011;64758;52.122;5.404;2023-05-07T06:08:03;12.13;;;10.83;;
75413;SDS011;64758;52.122;5.404;2023-05-07T06:10:29;13.77;;;11.18;;
75413;SDS011;64758;52.122;5.404;2023-05-07T06:12:56;13.02;;;10.52;;
75413;SDS011;64758;52.122;5.404;2023-05-07T06:15:23;12.75;;;10.82;;
75413;SDS011;64758;52.122;5.404;2023-05-07T06:17:49;15.07;;;11.57;;
75413;SDS011;64758;52.122;5.404;2023-05-07T06:20:16;13.87;;;11.07;;
75413;SDS011;64758;52.122;5.404;2023-05-07T06:22:45;12.43;;;11.07;;
75413;SDS011;64758;52.122;5.404;2023-05-07T06:25:12;14.23;;;11.70;;
75413;SDS011;64758;52.122;5.404;2023-05-07T06:27:38;14.20;;;11.43;;
75413;SDS011;64758;52.122;5.404;2023-05-07T06:30:06;13.05;;;11.27;;
75413;SDS011;64758;52.122;5.404;2023-05-07T06:32:33;15.50;;;11.33;;
75413;SDS011;64758;52.122;5.404;2023-05-07T06:35:00;14.90;;;11.80;;
75413;SDS011;64758;52.122;5.404;2023-05-07T06:37:26;12.57;;;11.02;;
75413;SDS011;64758;52.122;5.404;2023-05-07T06:39:53;13.55;;;11.95;;
75413;SDS011;64758;52.122;5.404;2023-05-07T06:42:19;13.50;;;12.05;;
75413;SDS011;64758;52.122;5.404;2023-05-07T06:44:46;15.07;;;11.53;;
75413;SDS011;64758;52.122;5.404;2023-05-07T06:47:13;13.88;;;10.95;;
75413;SDS011;64758;52.122;5.404;2023-05-07T06:49:41;15.27;;;11.80;;
75413;SDS011;64758;52.122;5.404;2023-05-07T06:52:08;16.67;;;11.85;;
75413;SDS011;64758;52.122;5.404;2023-05-07T06:54:34;13.98;;;12.32;;
75413;SDS011;64758;52.122;5.404;2023-05-07T06:57:01;15.13;;;11.43;;
75413;SDS011;64758;52.122;5.404;2023-05-07T06:59:28;15.55;;;11.68;;
75413;SDS011;64758;52.122;5.404;2023-05-07T07:01:54;13.90;;;12.25;;
75413;SDS011;64758;52.122;5.404;2023-05-07T07:04:21;15.55;;;11.82;;
75413;SDS011;64758;52.122;5.404;2023-05-07T07:06:49;14.68;;;11.95;;
75413;SDS011;64758;52.122;5.404;2023-05-07T07:09:16;12.53;;;10.87;;
75413;SDS011;64758;52.122;5.404;2023-05-07T07:11:42;14.13;;;11.50;;
75413;SDS011;64758;52.122;5.404;2023-05-07T07:14:09;15.50;;;12.25;;
75413;SDS011;64758;52.122;5.404;2023-05-07T07:16:36;14.88;;;12.43;;
75413;SDS011;64758;52.122;5.404;2023-05-07T07:19:02;18.85;;;12.90;;
75413;SDS011;64758;52.122;5.404;2023-05-07T07:21:29;14.67;;;11.73;;
75413;SDS011;64758;52.122;5.404;2023-05-07T07:23:56;16.40;;;12.07;;
75413;SDS011;64758;52.122;5.404;2023-05-07T07:26:23;16.23;;;12.93;;
75413;SDS011;64758;52.122;5.404;2023-05-07T07:28:51;16.08;;;12.15;;
75413;SDS011;64758;52.122;5.404;2023-05-07T07:31:18;19.30;;;12.27;;
75413;SDS011;64758;52.122;5.404;2023-05-07T07:33:45;14.40;;;11.87;;
75413;SDS011;64758;52.122;5.404;2023-05-07T07:36:11;13.68;;;12.15;;
75413;SDS011;64758;52.122;5.404;2023-05-07T07:38:38;15.43;;;12.50;;
75413;SDS011;64758;52.122;5.404;2023-05-07T07:41:04;16.08;;;12.90;;
75413;SDS011;64758;52.122;5.404;2023-05-07T07:43:31;13.98;;;12.40;;
75413;SDS011;64758;52.122;5.404;2023-05-07T07:45:57;16.50;;;12.27;;
75413;SDS011;64758;52.122;5.404;2023-05-07T07:48:24;15.75;;;12.60;;
75413;SDS011;64758;52.122;5.404;2023-05-07T07:50:50;13.43;;;11.57;;
75413;SDS011;64758;52.122;5.404;2023-05-07T07:53:17;14.88;;;12.13;;
75413;SDS011;64758;52.122;5.404;2023-05-07T07:55:44;15.52;;;12.30;;
75413;SDS011;64758;52.122;5.404;2023-05-07T07:58:11;14.77;;;12.97;;
75413;SDS011;64758;52.122;5.404;2023-05-07T08:00:37;14.77;;;11.57;;
75413;SDS011;64758;52.122;5.404;2023-05-07T08:03:04;14.05;;;12.10;;
75413;SDS011;64758;52.122;5.404;2023-05-07T08:05:33;14.93;;;12.07;;
75413;SDS011;64758;52.122;5.404;2023-05-07T08:07:59;13.80;;;11.77;;
75413;SDS011;64758;52.122;5.404;2023-05-07T08:10:26;14.77;;;11.70;;
75413;SDS011;64758;52.122;5.404;2023-05-07T08:12:53;16.00;;;11.68;;
75413;SDS011;64758;52.122;5.404;2023-05-07T08:15:19;14.48;;;12.10;;
75413;SDS011;64758;52.122;5.404;2023-05-07T08:17:46;18.65;;;12.98;;
75413;SDS011;64758;52.122;5.404;2023-05-07T08:20:13;17.42;;;12.57;;
75413;SDS011;64758;52.122;5.404;2023-05-07T08:22:40;14.37;;;12.17;;
75413;SDS011;64758;52.122;5.404;2023-05-07T08:25:07;14.07;;;12.50;;
75413;SDS011;64758;52.122;5.404;2023-05-07T08:27:34;16.80;;;13.32;;
75413;SDS011;64758;52.122;5.404;2023-05-07T08:30:00;16.02;;;12.95;;
75413;SDS011;64758;52.122;5.404;2023-05-07T08:32:27;17.05;;;13.05;;
75413;SDS011;64758;52.122;5.404;2023-05-07T08:34:54;16.67;;;12.07;;
75413;SDS011;64758;52.122;5.404;2023-05-07T08:37:20;15.38;;;12.48;;
75413;SDS011;64758;52.122;5.404;2023-05-07T08:39:47;15.63;;;12.65;;
75413;SDS011;64758;52.122;5.404;2023-05-07T08:42:14;16.60;;;12.93;;
75413;SDS011;64758;52.122;5.404;2023-05-07T08:44:46;15.27;;;12.55;;
75413;SDS011;64758;52.122;5.404;2023-05-07T08:47:15;15.40;;;12.83;;
75413;SDS011;64758;52.122;5.404;2023-05-07T08:49:42;14.65;;;13.07;;
75413;SDS011;64758;52.122;5.404;2023-05-07T08:52:09;18.23;;;13.75;;
75413;SDS011;64758;52.122;5.404;2023-05-07T08:54:36;17.02;;;13.77;;
75413;SDS011;64758;52.122;5.404;2023-05-07T08:57:04;18.63;;;13.10;;
75413;SDS011;64758;52.122;5.404;2023-05-07T08:59:31;16.20;;;13.00;;
75413;SDS011;64758;52.122;5.404;2023-05-07T09:01:57;16.80;;;12.77;;
75413;SDS011;64758;52.122;5.404;2023-05-07T09:04:24;15.65;;;13.05;;
75413;SDS011;64758;52.122;5.404;2023-05-07T09:06:51;17.77;;;13.68;;
75413;SDS011;64758;52.122;5.404;2023-05-07T09:09:17;15.35;;;12.73;;
75413;SDS011;64758;52.122;5.404;2023-05-07T09:11:47;14.90;;;12.90;;
75413;SDS011;64758;52.122;5.404;2023-05-07T09:14:13;17.75;;;13.75;;
75413;SDS011;64758;52.122;5.404;2023-05-07T09:16:40;15.07;;;13.30;;
75413;SDS011;64758;52.122;5.404;2023-05-07T09:19:07;17.23;;;13.50;;
75413;SDS011;64758;52.122;5.404;2023-05-07T09:21:34;15.82;;;13.48;;
75413;SDS011;64758;52.122;5.404;2023-05-07T09:24:01;17.10;;;11.77;;
75413;SDS011;64758;52.122;5.404;2023-05-07T09:26:28;12.10;;;10.63;;
75413;SDS011;64758;52.122;5.404;2023-05-07T09:28:54;12.73;;;11.27;;
75413;SDS011;64758;52.122;5.404;2023-05-07T09:31:21;13.70;;;11.75;;
75413;SDS011;64758;52.122;5.404;2023-05-07T09:33:50;14.43;;;12.13;;
75413;SDS011;64758;52.122;5.404;2023-05-07T09:36:16;13.17;;;11.80;;
75413;SDS011;64758;52.122;5.404;2023-05-07T09:38:44;13.40;;;11.85;;
75413;SDS011;64758;52.122;5.404;2023-05-07T09:41:12;14.75;;;11.80;;
75413;SDS011;64758;52.122;5.404;2023-05-07T09:43:39;15.30;;;11.68;;
75413;SDS011;64758;52.122;5.404;2023-05-07T09:46:07;12.52;;;11.18;;
75413;SDS011;64758;52.122;5.404;2023-05-07T09:48:42;14.63;;;11.77;;
75413;SDS011;64758;52.122;5.404;2023-05-07T09:51:12;16.38;;;12.55;;
75413;SDS011;64758;52.122;5.404;2023-05-07T09:53:50;15.02;;;11.60;;
75413;SDS011;64758;52.122;5.404;2023-05-07T09:56:18;18.17;;;11.85;;
75413;SDS011;64758;52.122;5.404;2023-05-07T09:58:46;14.45;;;11.70;;
75413;SDS011;64758;52.122;5.404;2023-05-07T10:01:13;14.57;;;11.87;;
75413;SDS011;64758;52.122;5.404;2023-05-07T10:03:41;24.25;;;12.50;;
75413;SDS011;64758;52.122;5.404;2023-05-07T10:06:09;16.55;;;12.65;;
75413;SDS011;64758;52.122;5.404;2023-05-07T10:08:37;14.60;;;12.98;;
75413;SDS011;64758;52.122;5.404;2023-05-07T10:11:04;17.15;;;13.18;;
75413;SDS011;64758;52.122;5.404;2023-05-07T10:13:35;15.63;;;12.97;;
75413;SDS011;64758;52.122;5.404;2023-05-07T10:16:03;15.90;;;13.02;;
75413;SDS011;64758;52.122;5.404;2023-05-07T10:18:31;17.70;;;13.45;;
75413;SDS011;64758;52.122;5.404;2023-05-07T10:21:04;16.63;;;14.07;;
75413;SDS011;64758;52.122;5.404;2023-05-07T10:23:34;16.25;;;13.60;;
75413;SDS011;64758;52.122;5.404;2023-05-07T10:26:02;16.43;;;12.90;;
75413;SDS011;64758;52.122;5.404;2023-05-07T10:28:32;17.45;;;13.38;;
75413;SDS011;64758;52.122;5.404;2023-05-07T10:31:11;16.90;;;12.75;;
75413;SDS011;64758;52.122;5.404;2023-05-07T10:33:49;16.10;;;13.40;;
75413;SDS011;64758;52.122;5.404;2023-05-07T10:36:19;17.55;;;13.88;;
75413;SDS011;64758;52.122;5.404;2023-05-07T10:38:47;20.10;;;12.60;;
75413;SDS011;64758;52.122;5.404;2023-05-07T10:41:14;17.83;;;12.43;;
75413;SDS011;64758;52.122;5.404;2023-05-07T10:43:43;15.63;;;12.65;;
75413;SDS011;64758;52.122;5.404;2023-05-07T10:46:18;17.40;;;13.35;;
75413;SDS011;64758;52.122;5.404;2023-05-07T10:49:19;15.82;;;12.80;;
75413;SDS011;64758;52.122;5.404;2023-05-07T10:51:38;15.00;;;11.93;;
75413;SDS011;64758;52.122;5.404;2023-05-07T10:56:35;17.55;;;12.52;;
75413;SDS011;64758;52.122;5.404;2023-05-07T11:01:57;15.48;;;13.20;;
75413;SDS011;64758;52.122;5.404;2023-05-07T11:04:30;14.57;;;11.73;;
75413;SDS011;64758;52.122;5.404;2023-05-07T11:15:06;18.17;;;13.60;;
75413;SDS011;64758;52.122;5.404;2023-05-07T11:17:33;18.17;;;13.47;;
75413;SDS011;64758;52.122;5.404;2023-05-07T11:20:02;18.23;;;13.55;;
75413;SDS011;64758;52.122;5.404;2023-05-07T11:25:01;17.52;;;12.93;;
75413;SDS011;64758;52.122;5.404;2023-05-07T11:27:28;16.23;;;13.45;;
75413;SDS011;64758;52.122;5.404;2023-05-07T11:29:56;16.43;;;12.37;;
75413;SDS011;64758;52.122;5.404;2023-05-07T11:32:23;17.02;;;13.40;;
75413;SDS011;64758;52.122;5.404;2023-05-07T11:34:57;16.95;;;12.95;;
75413;SDS011;64758;52.122;5.404;2023-05-07T11:37:24;16.77;;;12.65;;
75413;SDS011;64758;52.122;5.404;2023-05-07T11:40:05;16.13;;;12.95;;
75413;SDS011;64758;52.122;5.404;2023-05-07T11:42:35;18.97;;;12.73;;
75413;SDS011;64758;52.122;5.404;2023-05-07T11:45:07;16.38;;;12.02;;
75413;SDS011;64758;52.122;5.404;2023-05-07T11:47:34;15.70;;;12.50;;
75413;SDS011;64758;52.122;5.404;2023-05-07T11:50:05;17.25;;;12.85;;
75413;SDS011;64758;52.122;5.404;2023-05-07T11:52:34;15.38;;;13.63;;
75413;SDS011;64758;52.122;5.404;2023-05-07T11:55:01;16.10;;;13.07;;
75413;SDS011;64758;52.122;5.404;2023-05-07T11:57:29;16.77;;;13.40;;
75413;SDS011;64758;52.122;5.404;2023-05-07T11:59:56;16.88;;;13.52;;
75413;SDS011;64758;52.122;5.404;2023-05-07T12:02:24;16.20;;;13.07;;
75413;SDS011;64758;52.122;5.404;2023-05-07T12:04:52;17.98;;;13.18;;
75413;SDS011;64758;52.122;5.404;2023-05-07T12:07:19;18.23;;;13.90;;
75413;SDS011;64758;52.122;5.404;2023-05-07T12:09:46;15.38;;;13.55;;
75413;SDS011;64758;52.122;5.404;2023-05-07T12:12:14;15.57;;;13.82;;
75413;SDS011;64758;52.122;5.404;2023-05-07T12:14:44;17.10;;;14.50;;
75413;SDS011;64758;52.122;5.404;2023-05-07T12:17:12;18.77;;;14.80;;
75413;SDS011;64758;52.122;5.404;2023-05-07T12:19:41;16.50;;;14.00;;
75413;SDS011;64758;52.122;5.404;2023-05-07T12:22:10;17.98;;;13.70;;
75413;SDS011;64758;52.122;5.404;2023-05-07T12:24:48;17.17;;;14.30;;
75413;SDS011;64758;52.122;5.404;2023-05-07T12:27:16;16.45;;;13.82;;
75413;SDS011;64758;52.122;5.404;2023-05-07T12:29:44;15.88;;;12.73;;
75413;SDS011;64758;52.122;5.404;2023-05-07T12:32:13;15.07;;;12.40;;
75413;SDS011;64758;52.122;5.404;2023-05-07T12:34:42;17.10;;;13.93;;
75413;SDS011;64758;52.122;5.404;2023-05-07T12:37:11;17.25;;;13.80;;
75413;SDS011;64758;52.122;5.404;2023-05-07T12:39:44;17.05;;;13.23;;
75413;SDS011;64758;52.122;5.404;2023-05-07T12:42:16;14.68;;;13.18;;
75413;SDS011;64758;52.122;5.404;2023-05-07T12:44:46;16.67;;;13.13;;
75413;SDS011;64758;52.122;5.404;2023-05-07T12:47:13;17.90;;;13.60;;
75413;SDS011;64758;52.122;5.404;2023-05-07T12:49:41;15.65;;;12.50;;
75413;SDS011;64758;52.122;5.404;2023-05-07T12:52:11;15.18;;;12.35;;
75413;SDS011;64758;52.122;5.404;2023-05-07T12:54:38;13.00;;;11.60;;
75413;SDS011;64758;52.122;5.404;2023-05-07T12:57:06;14.07;;;9.90;;
75413;SDS011;64758;52.122;5.404;2023-05-07T12:59:40;12.38;;;10.02;;
75413;SDS011;64758;52.122;5.404;2023-05-07T13:02:08;11.00;;;7.90;;
75413;SDS011;64758;52.122;5.404;2023-05-07T13:04:35;10.93;;;8.18;;
75413;SDS011;64758;52.122;5.404;2023-05-07T13:07:02;8.02;;;7.22;;
75413;SDS011;64758;52.122;5.404;2023-05-07T13:09:29;9.03;;;8.13;;
75413;SDS011;64758;52.122;5.404;2023-05-07T13:11:57;9.73;;;8.57;;
75413;SDS011;64758;52.122;5.404;2023-05-07T13:14:27;10.50;;;7.63;;
75413;SDS011;64758;52.122;5.404;2023-05-07T13:16:54;10.80;;;8.52;;
75413;SDS011;64758;52.122;5.404;2023-05-07T13:19:21;9.65;;;8.30;;
75413;SDS011;64758;52.122;5.404;2023-05-07T13:21:47;13.53;;;10.33;;
75413;SDS011;64758;52.122;5.404;2023-05-07T13:24:15;10.35;;;9.25;;
75413;SDS011;64758;52.122;5.404;2023-05-07T13:26:42;9.73;;;8.18;;
75413;SDS011;64758;52.122;5.404;2023-05-07T13:29:11;9.95;;;8.38;;
75413;SDS011;64758;52.122;5.404;2023-05-07T13:31:38;12.20;;;8.90;;
75413;SDS011;64758;52.122;5.404;2023-05-07T13:34:09;9.67;;;7.27;;
75413;SDS011;64758;52.122;5.404;2023-05-07T13:36:36;9.32;;;8.13;;
75413;SDS011;64758;52.122;5.404;2023-05-07T13:39:05;10.93;;;9.25;;
75413;SDS011;64758;52.122;5.404;2023-05-07T13:41:32;10.23;;;8.45;;
75413;SDS011;64758;52.122;5.404;2023-05-07T13:43:59;10.30;;;8.20;;
75413;SDS011;64758;52.122;5.404;2023-05-07T13:46:25;11.70;;;7.60;;
75413;SDS011;64758;52.122;5.404;2023-05-07T13:48:53;10.00;;;8.70;;
75413;SDS011;64758;52.122;5.404;2023-05-07T13:51:19;9.48;;;8.50;;
75413;SDS011;64758;52.122;5.404;2023-05-07T13:53:46;12.15;;;9.95;;
75413;SDS011;64758;52.122;5.404;2023-05-07T13:56:13;14.85;;;10.77;;
75413;SDS011;64758;52.122;5.404;2023-05-07T13:58:41;13.27;;;10.53;;
75413;SDS011;64758;52.122;5.404;2023-05-07T14:01:25;11.80;;;10.10;;
75413;SDS011;64758;52.122;5.404;2023-05-07T14:03:51;15.70;;;12.10;;
75413;SDS011;64758;52.122;5.404;2023-05-07T14:06:18;15.23;;;12.02;;
75413;SDS011;64758;52.122;5.404;2023-05-07T14:08:45;14.27;;;11.10;;
75413;SDS011;64758;52.122;5.404;2023-05-07T14:11:11;17.93;;;12.13;;
75413;SDS011;64758;52.122;5.404;2023-05-07T14:13:38;13.55;;;11.75;;
75413;SDS011;64758;52.122;5.404;2023-05-07T14:16:04;12.93;;;11.52;;
75413;SDS011;64758;52.122;5.404;2023-05-07T14:18:31;15.27;;;11.15;;
75413;SDS011;64758;52.122;5.404;2023-05-07T14:20:59;12.25;;;10.98;;
75413;SDS011;64758;52.122;5.404;2023-05-07T14:23:26;13.37;;;9.60;;
75413;SDS011;64758;52.122;5.404;2023-05-07T14:25:53;17.15;;;11.80;;
75413;SDS011;64758;52.122;5.404;2023-05-07T14:28:19;15.80;;;11.63;;
75413;SDS011;64758;52.122;5.404;2023-05-07T14:30:46;14.57;;;11.43;;
75413;SDS011;64758;52.122;5.404;2023-05-07T14:33:13;12.60;;;10.75;;
75413;SDS011;64758;52.122;5.404;2023-05-07T14:35:40;14.37;;;11.30;;
75413;SDS011;64758;52.122;5.404;2023-05-07T14:38:06;12.77;;;10.20;;
75413;SDS011;64758;52.122;5.404;2023-05-07T14:40:33;12.13;;;9.82;;
75413;SDS011;64758;52.122;5.404;2023-05-07T14:42:59;12.65;;;10.38;;
75413;SDS011;64758;52.122;5.404;2023-05-07T14:45:26;14.43;;;11.48;;
75413;SDS011;64758;52.122;5.404;2023-05-07T14:47:52;15.30;;;11.60;;